CXE weather

Campeche Airport
Mexicali, Baja California, Mexico

Public forecast

Using degrees Celsius for public forecast. Weather courtesy of forecast.io.

METAR (pilot weather report)

Closest report is General Rodolfo Sánchez Taboada International Airport, 14.1 nm (26.1 km) WNW. Retrieved 2019/08/21 03:41 UTC (0 seconds ago):

MMML 210341Z 22003KT 10SM SKC 36/02 A2969

TAF (pilot weather forecast)

Forecast is more than 6 hours old.

Closest forecast is General Rodolfo Sánchez Taboada International Airport, 14.1 nm (26.1 km) WNW. Retrieved 2019/08/20 18:09 UTC (9 hours ago):

TAF MMML 201703Z 2018/2118 10008KT P6SM SKC BECMG 2102/2103 35008KT